Time;durP1;ratioP1;P1;durP2;ratioP2;P2;SDS_P1;SDS_P2;PMS_P1;PMS_P2;Temp;Humidity;BMP_temperature;BMP_pressure;BME280_temperature;BME280_humidity;BME280_pressure;Samples;Min_cycle;Max_cycle;Signal;HPM_P1;HPM_P2
2022/07/30 00:02:00;;;;;;;19.73;9.00;;;;;;;15.52;100.00;102028.03;7380164;19;20003;-77
2022/07/30 00:04:31;;;;;;;14.10;8.52;;;;;;;15.53;100.00;102023.63;7386055;19;20476;-78
2022/07/30 00:07:04;;;;;;;13.93;8.00;;;;;;;15.50;100.00;102031.53;7383386;19;20006;-79
2022/07/30 00:09:34;;;;;;;20.08;8.30;;;;;;;15.50;100.00;102028.88;7382442;19;20007;-79
2022/07/30 00:12:05;;;;;;;14.98;8.48;;;;;;;15.46;100.00;102021.78;7384199;19;20014;-77
2022/07/30 00:14:36;;;;;;;13.75;8.25;;;;;;;15.42;100.00;102030.53;7385481;19;20480;-77
2022/07/30 00:17:09;;;;;;;16.40;8.27;;;;;;;15.42;100.00;102025.25;7384956;19;20422;-78
2022/07/30 00:19:39;;;;;;;13.88;7.55;;;;;;;15.38;100.00;102019.03;7384331;19;20014;-79
2022/07/30 00:22:09;;;;;;;14.60;7.50;;;;;;;15.34;100.00;102018.13;7385058;19;20011;-78
2022/07/30 00:24:39;;;;;;;14.10;7.15;;;;;;;15.33;100.00;102018.09;7384471;19;20080;-78
2022/07/30 00:27:09;;;;;;;10.80;6.10;;;;;;;15.31;100.00;102010.16;7382669;19;20039;-77
2022/07/30 00:29:39;;;;;;;15.93;7.35;;;;;;;15.28;100.00;102011.88;7384636;19;20014;-77
2022/07/30 00:32:16;;;;;;;14.98;6.13;;;;;;;15.26;100.00;102003.91;7384919;19;20023;-77
2022/07/30 00:34:46;;;;;;;14.27;6.70;;;;;;;15.27;100.00;102010.09;7381688;19;20437;-77
2022/07/30 00:37:16;;;;;;;13.57;5.88;;;;;;;15.22;100.00;102002.09;7381696;19;20014;-77
2022/07/30 00:39:47;;;;;;;11.93;6.38;;;;;;;15.20;100.00;102005.59;7382822;19;20022;-79
2022/07/30 00:42:24;;;;;;;15.05;6.68;;;;;;;15.16;100.00;101996.75;7383539;19;20333;-77
2022/07/30 00:44:54;;;;;;;12.63;6.38;;;;;;;15.15;100.00;101992.31;7381149;19;20475;-78
2022/07/30 00:47:28;;;;;;;11.45;5.40;;;;;;;15.13;100.00;102001.09;7383674;19;20026;-78
2022/07/30 00:49:58;;;;;;;14.02;6.25;;;;;;;15.12;100.00;102000.22;7384027;19;20015;-78
2022/07/30 00:52:28;;;;;;;11.30;6.40;;;;;;;15.11;100.00;102003.72;7378352;19;20017;-78
2022/07/30 00:54:58;;;;;;;13.20;6.25;;;;;;;15.09;100.00;101994.88;7382407;19;20378;-78
2022/07/30 00:57:29;;;;;;;13.55;6.50;;;;;;;15.06;100.00;101997.50;7382201;19;20015;-78
2022/07/30 00:59:59;;;;;;;13.77;5.93;;;;;;;15.07;100.00;101999.25;7383342;19;20106;-78
2022/07/30 01:02:32;;;;;;;16.10;6.15;;;;;;;15.02;100.00;101993.03;7381403;19;20535;-78
2022/07/30 01:05:02;;;;;;;13.93;6.25;;;;;;;15.01;100.00;102004.47;7378179;19;20086;-80
2022/07/30 01:07:32;;;;;;;15.93;6.70;;;;;;;14.99;100.00;101996.53;7385576;19;20019;-79
2022/07/30 01:10:02;;;;;;;12.93;6.85;;;;;;;14.97;100.00;101994.72;7383599;19;20003;-79
2022/07/30 01:12:33;;;;;;;14.93;7.05;;;;;;;14.95;100.00;101991.19;7383840;19;20023;-79
2022/07/30 01:15:06;;;;;;;13.40;5.85;;;;;;;14.92;100.00;102001.69;7382762;19;20006;-78
2022/07/30 01:17:40;;;;;;;12.10;6.97;;;;;;;14.89;100.00;101999.91;7383456;19;20018;-78
2022/07/30 01:20:14;;;;;;;11.77;6.88;;;;;;;14.87;100.00;101999.00;7381157;19;20028;-78
2022/07/30 01:22:53;;;;;;;14.43;6.43;;;;;;;14.86;100.00;101996.31;7383292;19;20021;-78
2022/07/30 01:25:35;;;;;;;14.13;6.32;;;;;;;14.84;100.00;101998.06;7382752;19;20780;-78
2022/07/30 01:28:12;;;;;;;10.25;6.13;;;;;;;14.82;100.00;101992.75;7379022;19;20015;-79
2022/07/30 01:30:47;;;;;;;14.25;6.60;;;;;;;14.79;100.00;101995.34;7381402;19;20047;-78
2022/07/30 01:33:21;;;;;;;12.25;5.72;;;;;;;14.77;100.00;101997.09;7376759;19;20460;-78
2022/07/30 01:35:54;;;;;;;13.77;6.18;;;;;;;14.76;100.00;101999.69;7383392;19;20432;-78
2022/07/30 01:38:26;;;;;;;9.88;6.20;;;;;;;14.70;100.00;101993.47;7383483;19;20015;-78
2022/07/30 01:41:05;;;;;;;12.63;7.82;;;;;;;14.68;100.00;101997.84;7371646;19;20007;-79
2022/07/30 01:43:39;;;;;;;17.60;7.00;;;;;;;14.66;100.00;101999.56;7382515;19;20605;-77
2022/07/30 01:46:12;;;;;;;13.45;6.47;;;;;;;14.62;100.00;101989.81;7380687;19;20007;-79
2022/07/30 01:48:45;;;;;;;12.93;5.78;;;;;;;14.58;100.00;101993.28;7380957;19;20015;-80
2022/07/30 01:51:19;;;;;;;13.27;6.65;;;;;;;14.54;100.00;101994.13;7382100;19;20011;-78
2022/07/30 01:53:53;;;;;;;15.00;6.65;;;;;;;14.51;100.00;101988.81;7375643;19;20093;-79
2022/07/30 01:56:26;;;;;;;12.23;5.93;;;;;;;14.49;100.00;101990.53;7380664;19;20074;-79
2022/07/30 01:59:01;;;;;;;10.50;5.82;;;;;;;14.46;100.00;101995.78;7381615;19;20025;-80
2022/07/30 02:01:32;;;;;;;11.65;6.32;;;;;;;14.43;100.00;101989.56;7381821;19;20015;-79
2022/07/30 02:04:04;;;;;;;12.13;6.00;;;;;;;14.40;100.00;101995.63;7379462;19;20012;-79
2022/07/30 02:06:39;;;;;;;11.25;5.80;;;;;;;14.38;100.00;102000.00;7379220;19;20006;-79
2022/07/30 02:09:11;;;;;;;12.70;6.82;;;;;;;14.36;100.00;102004.38;7379845;19;20019;-79
2022/07/30 02:14:36;;;;;;;13.43;7.43;;;;;;;14.27;100.00;101997.19;7380965;19;20094;-80
2022/07/30 02:17:08;;;;;;;10.10;5.70;;;;;;;14.26;100.00;102005.06;7382378;19;20033;-78
2022/07/30 02:19:53;;;;;;;12.85;6.07;;;;;;;14.25;100.00;102012.09;7382400;19;20101;-79
2022/07/30 02:22:27;;;;;;;9.95;5.45;;;;;;;14.24;100.00;102014.72;7379506;19;20434;-78
2022/07/30 02:25:05;;;;;;;11.18;5.97;;;;;;;14.22;100.00;102011.16;7381364;19;20015;-79
2022/07/30 02:27:40;;;;;;;11.20;5.95;;;;;;;14.21;100.00;102010.28;7381765;19;20017;-79
2022/07/30 02:30:15;;;;;;;13.57;6.47;;;;;;;14.21;100.00;102012.91;7379407;19;20028;-78
2022/07/30 02:32:46;;;;;;;12.18;5.63;;;;;;;14.16;100.00;102013.69;7380257;19;20111;-79
2022/07/30 02:35:20;;;;;;;11.73;6.00;;;;;;;14.12;100.00;102009.22;7383075;19;20133;-79
2022/07/30 02:37:54;;;;;;;11.68;6.88;;;;;;;14.08;100.00;101997.72;7382101;19;20019;-79
2022/07/30 02:40:26;;;;;;;12.88;6.55;;;;;;;14.07;100.00;102002.13;7383193;19;20025;-79
2022/07/30 02:42:59;;;;;;;11.40;6.25;;;;;;;14.06;100.00;102002.97;7383213;19;20014;-79
2022/07/30 02:45:32;;;;;;;12.20;7.65;;;;;;;14.01;100.00;101991.47;7380465;19;20362;-79
2022/07/30 02:48:05;;;;;;;14.73;6.63;;;;;;;13.99;100.00;102001.09;7380328;19;20010;-79
2022/07/30 02:50:36;;;;;;;13.80;6.60;;;;;;;13.96;100.00;101998.41;7380624;19;20006;-80
2022/07/30 02:53:10;;;;;;;12.82;6.32;;;;;;;13.91;100.00;101989.53;7377036;19;20021;-80
2022/07/30 02:55:42;;;;;;;10.75;6.20;;;;;;;13.89;100.00;101993.88;7383945;19;20014;-78
2022/07/30 02:58:14;;;;;;;12.00;5.97;;;;;;;13.85;100.00;101991.16;7387995;19;20420;-79
2022/07/30 03:00:50;;;;;;;13.68;6.68;;;;;;;13.82;100.00;101994.63;7391127;19;20125;-79
2022/07/30 03:03:27;;;;;;;12.27;6.10;;;;;;;13.79;100.00;101994.56;7388225;19;20431;-78
2022/07/30 03:06:04;;;;;;;15.70;8.13;;;;;;;13.74;100.00;102004.16;7388627;19;20022;-79
2022/07/30 03:08:36;;;;;;;11.32;6.95;;;;;;;13.74;100.00;101996.25;7388759;19;20040;-78
2022/07/30 03:11:07;;;;;;;13.63;7.18;;;;;;;13.74;100.00;101998.88;7386908;19;20026;-79
2022/07/30 03:13:37;;;;;;;15.70;8.00;;;;;;;13.72;100.00;101997.97;7389517;19;20011;-79
2022/07/30 03:16:12;;;;;;;10.85;6.47;;;;;;;13.69;100.00;102005.81;7388146;19;20403;-80
2022/07/30 03:18:44;;;;;;;16.77;6.90;;;;;;;13.69;100.00;102003.16;7383088;19;20010;-79
2022/07/30 03:21:16;;;;;;;15.73;7.00;;;;;;;13.68;100.00;102004.03;7381656;19;20022;-79
2022/07/30 03:23:49;;;;;;;15.90;8.07;;;;;;;13.68;100.00;101999.66;7379668;19;20018;-78
2022/07/30 03:26:23;;;;;;;13.18;7.40;;;;;;;13.65;100.00;102002.22;7380602;19;20014;-79
2022/07/30 03:28:55;;;;;;;10.90;6.45;;;;;;;13.61;100.00;102003.03;7378439;19;20060;-78
2022/07/30 03:31:31;;;;;;;14.98;8.02;;;;;;;13.57;100.00;101997.66;7381716;19;20014;-78
2022/07/30 03:34:08;;;;;;;13.60;7.22;;;;;;;13.57;100.00;102005.56;7380963;19;20010;-79
2022/07/30 03:36:42;;;;;;;14.00;7.88;;;;;;;13.54;100.00;102005.50;7380746;19;20003;-79
2022/07/30 03:39:13;;;;;;;13.07;7.25;;;;;;;13.50;100.00;102007.22;7374843;19;20036;-80
2022/07/30 03:41:44;;;;;;;14.70;8.05;;;;;;;13.51;100.00;102009.00;7377498;19;20014;-79
2022/07/30 03:44:14;;;;;;;16.95;8.82;;;;;;;13.51;100.00;102002.84;7379945;19;20109;-81
2022/07/30 03:46:49;;;;;;;18.48;8.88;;;;;;;13.51;100.00;102008.13;7378118;19;20018;-78
2022/07/30 03:49:22;;;;;;;13.68;7.75;;;;;;;13.49;100.00;102000.19;7378646;19;20365;-79
2022/07/30 03:51:56;;;;;;;14.13;7.40;;;;;;;13.49;100.00;102008.09;7379616;19;20250;-80
2022/07/30 03:54:29;;;;;;;15.85;8.63;;;;;;;13.48;100.00;102005.41;7374239;19;20007;-79
2022/07/30 03:56:59;;;;;;;13.38;7.80;;;;;;;13.46;100.00;102008.03;7378558;19;20007;-79
2022/07/30 03:59:35;;;;;;;16.92;9.25;;;;;;;13.44;100.00;102001.84;7378197;19;20536;-80
2022/07/30 04:02:08;;;;;;;15.60;7.85;;;;;;;13.44;100.00;102017.66;7378872;19;20014;-79
2022/07/30 04:04:38;;;;;;;15.50;8.77;;;;;;;13.46;100.00;102009.78;7377898;19;20007;-79
2022/07/30 04:07:08;;;;;;;18.60;9.05;;;;;;;13.46;100.00;102015.03;7379142;19;20029;-78
2022/07/30 04:09:38;;;;;;;15.98;8.93;;;;;;;13.46;100.00;102017.69;7375943;19;20018;-79
2022/07/30 04:12:09;;;;;;;13.00;8.30;;;;;;;13.44;100.00;102015.00;7379985;19;20081;-79
2022/07/30 04:14:43;;;;;;;19.00;8.48;;;;;;;13.45;100.00;102010.63;7377333;19;20010;-78
2022/07/30 04:17:26;;;;;;;14.70;8.45;;;;;;;13.46;100.00;102020.31;7378382;19;20366;-78
2022/07/30 04:20:02;;;;;;;13.75;7.43;;;;;;;13.45;100.00;102023.81;7377112;19;20019;-76
2022/07/30 04:22:35;;;;;;;15.45;8.95;;;;;;;13.45;100.00;102026.44;7375158;19;20038;-77
2022/07/30 04:25:07;;;;;;;16.77;8.75;;;;;;;13.45;100.00;102035.25;7380585;19;20039;-77
2022/07/30 04:27:38;;;;;;;13.13;7.45;;;;;;;13.47;100.00;102022.97;7376777;19;20011;-77
2022/07/30 04:30:29;;;;;;;13.07;7.55;;;;;;;13.50;100.00;102028.31;7378143;19;20312;-78
2022/07/30 04:33:03;;;;;;;14.45;7.95;;;;;;;13.51;100.00;102026.56;7377979;19;20006;-78
2022/07/30 04:35:35;;;;;;;17.00;9.25;;;;;;;13.56;100.00;102027.50;7375509;19;20006;-78
2022/07/30 04:38:22;;;;;;;17.42;8.32;;;;;;;13.60;100.00;102024.09;7376710;19;20010;-77
2022/07/30 04:40:53;;;;;;;15.75;7.88;;;;;;;13.61;100.00;102037.28;7376741;19;20006;-77
2022/07/30 04:43:23;;;;;;;14.75;8.15;;;;;;;13.64;100.00;102032.09;7377984;19;20022;-79
2022/07/30 04:45:54;;;;;;;13.65;8.20;;;;;;;13.67;100.00;102036.53;7371556;19;20014;-76
2022/07/30 04:48:27;;;;;;;16.00;7.88;;;;;;;13.71;100.00;102033.09;7375257;19;20026;-76
2022/07/30 04:51:06;;;;;;;13.98;8.00;;;;;;;13.73;100.00;102044.56;7383917;19;20022;-77
2022/07/30 04:53:37;;;;;;;13.45;7.60;;;;;;;13.73;100.00;102034.00;7376192;19;20006;-77
2022/07/30 04:56:08;;;;;;;18.63;8.50;;;;;;;13.78;100.00;102032.34;7382692;19;20027;-77
2022/07/30 04:58:40;;;;;;;14.98;8.40;;;;;;;13.80;100.00;102028.00;7385413;19;20031;-77
2022/07/30 05:01:11;;;;;;;16.90;9.07;;;;;;;13.85;100.00;102036.00;7382733;19;20006;-77
2022/07/30 05:03:45;;;;;;;20.65;9.75;;;;;;;13.91;100.00;102031.72;7383624;19;20980;-77
2022/07/30 05:06:17;;;;;;;18.90;9.65;;;;;;;13.97;100.00;102039.75;7384874;19;20014;-78
2022/07/30 05:08:49;;;;;;;15.63;8.15;;;;;;;14.05;100.00;102034.59;7383985;19;20560;-79
2022/07/30 05:11:25;;;;;;;14.95;7.55;;;;;;;14.16;100.00;102042.72;7382599;19;20024;-77
2022/07/30 05:13:56;;;;;;;13.80;8.40;;;;;;;14.28;100.00;102045.56;7380090;19;20061;-77
2022/07/30 05:16:28;;;;;;;18.45;8.50;;;;;;;14.45;100.00;102046.78;7383441;19;20023;-76
2022/07/30 05:19:02;;;;;;;12.57;7.47;;;;;;;14.66;100.00;102044.44;7380450;19;20017;-77
2022/07/30 05:21:36;;;;;;;16.30;7.90;;;;;;;14.92;100.00;102038.69;7383067;19;20017;-76
2022/07/30 05:24:07;;;;;;;15.85;8.52;;;;;;;15.15;100.00;102041.66;7382364;19;20021;-76
2022/07/30 05:26:38;;;;;;;17.77;7.95;;;;;;;15.46;100.00;102043.81;7383933;19;20013;-76
2022/07/30 05:29:08;;;;;;;14.43;7.78;;;;;;;15.71;100.00;102050.28;7379131;19;20011;-76
2022/07/30 05:31:48;;;;;;;12.50;6.50;;;;;;;15.98;100.00;102045.28;7383660;19;20346;-76
2022/07/30 05:34:23;;;;;;;10.63;6.75;;;;;;;16.24;100.00;102052.59;7379476;19;20010;-77
2022/07/30 05:36:53;;;;;;;14.82;6.80;;;;;;;16.42;100.00;102051.88;7380462;19;20086;-76
2022/07/30 05:39:24;;;;;;;13.98;6.95;;;;;;;16.65;100.00;102056.50;7380614;19;20014;-77
2022/07/30 05:41:54;;;;;;;13.50;6.53;;;;;;;16.87;100.00;102056.66;7382066;19;20015;-77
2022/07/30 05:44:24;;;;;;;13.85;6.22;;;;;;;17.07;100.00;102056.78;7382133;19;20015;-77
2022/07/30 05:46:54;;;;;;;11.07;5.80;;;;;;;17.29;100.00;102059.56;7382127;19;20081;-79
2022/07/30 05:49:27;;;;;;;10.90;5.43;;;;;;;17.46;100.00;102058.75;7380877;19;20026;-79
2022/07/30 05:51:57;;;;;;;;;;;;;;;17.58;100.00;102058.81;7383286;19;20015;-77
2022/07/30 05:54:33;;;;;;;11.73;6.00;;;;;;;17.70;100.00;102058.84;7375793;19;19914;-76
2022/07/30 05:57:03;;;;;;;9.18;4.70;;;;;;;17.90;100.00;102057.13;7384574;19;20017;-77
2022/07/30 05:59:34;;;;;;;9.25;4.60;;;;;;;18.13;100.00;102065.16;7384626;19;20594;-79
2022/07/30 06:02:05;;;;;;;14.73;4.55;;;;;;;18.17;100.00;102066.03;7382580;19;20014;-79
2022/07/30 06:04:38;;;;;;;9.77;4.20;;;;;;;18.19;100.00;102061.63;7380959;19;20018;-79
2022/07/30 06:07:15;;;;;;;6.68;3.70;;;;;;;18.12;100.00;102065.16;7383303;19;20014;-77
2022/07/30 06:09:51;;;;;;;10.70;4.40;;;;;;;18.25;100.00;102066.94;7387473;19;20007;-78
2022/07/30 06:12:22;;;;;;;18.15;6.10;;;;;;;18.18;100.00;102057.19;7384691;19;20614;-78
2022/07/30 06:14:55;;;;;;;8.95;4.78;;;;;;;18.40;100.00;102066.06;7383658;19;20018;-78
2022/07/30 06:17:28;;;;;;;10.43;4.70;;;;;;;18.56;100.00;102071.38;7389008;19;20460;-77
2022/07/30 06:20:05;;;;;;;13.13;5.15;;;;;;;18.61;100.00;102069.63;7388458;19;20439;-78
2022/07/30 06:22:36;;;;;;;12.23;4.70;;;;;;;18.81;100.00;102066.94;7385963;19;20007;-78
2022/07/30 06:25:09;;;;;;;7.38;4.53;;;;;;;18.92;100.00;102064.25;7385511;19;20099;-78
2022/07/30 06:27:40;;;;;;;7.38;3.38;;;;;;;19.12;100.00;102064.22;7385317;19;20015;-78
2022/07/30 06:30:12;;;;;;;7.32;3.90;;;;;;;19.39;100.00;102055.28;7385342;19;20002;-77
2022/07/30 06:32:42;;;;;;;8.18;3.90;;;;;;;19.52;100.00;102063.25;7387125;19;20048;-78
2022/07/30 06:35:15;;;;;;;15.27;3.60;;;;;;;19.34;100.00;102065.06;7382033;19;20043;-79
2022/07/30 06:37:45;;;;;;;7.95;3.22;;;;;;;19.67;100.00;102056.97;7382568;19;20014;-78
2022/07/30 06:40:35;;;;;;;9.68;4.13;;;;;;;19.61;100.00;102057.00;7380835;19;20018;-78
2022/07/30 06:43:05;;;;;;;8.18;3.45;;;;;;;19.92;97.83;102057.69;7380337;19;20010;-78
2022/07/30 06:45:35;;;;;;;9.23;3.60;;;;;;;20.14;98.54;102053.09;7379977;19;20013;-78
2022/07/30 06:48:07;;;;;;;10.10;3.17;;;;;;;20.50;96.21;102055.53;7379257;19;20109;-79
2022/07/30 06:50:40;;;;;;;5.93;3.08;;;;;;;20.43;95.16;102055.59;7378968;19;20030;-79
2022/07/30 06:53:10;;;;;;;8.15;3.05;;;;;;;20.60;94.96;102060.78;7374567;19;20778;-78
2022/07/30 06:55:40;;;;;;;10.02;3.30;;;;;;;20.85;93.16;102059.63;7380589;19;20102;-78
2022/07/30 06:58:11;;;;;;;7.75;3.13;;;;;;;20.83;91.27;102056.97;7375954;19;20094;-79
2022/07/30 07:00:41;;;;;;;6.85;3.20;;;;;;;20.84;93.47;102057.84;7378687;19;20056;-80
2022/07/30 07:03:11;;;;;;;8.05;2.88;;;;;;;20.95;90.21;102055.94;7378721;19;20019;-80
2022/07/30 07:05:44;;;;;;;6.57;2.92;;;;;;;21.16;88.30;102061.06;7379104;19;20363;-80
2022/07/30 07:08:15;;;;;;;4.95;2.78;;;;;;;20.88;87.21;102064.91;7381850;19;20011;-79
2022/07/30 07:10:45;;;;;;;11.40;3.97;;;;;;;21.23;86.16;102061.91;7379568;19;20029;-79
2022/07/30 07:13:15;;;;;;;12.02;3.80;;;;;;;21.23;85.73;102061.03;7380100;19;20044;-79
2022/07/30 07:15:45;;;;;;;8.85;3.45;;;;;;;21.33;84.23;102058.22;7383403;19;20090;-78
2022/07/30 07:18:15;;;;;;;5.60;2.50;;;;;;;21.06;86.26;102063.84;7382009;19;20014;-80
2022/07/30 07:20:49;;;;;;;6.50;2.65;;;;;;;20.69;86.23;102060.69;7379920;19;20024;-81
2022/07/30 07:23:19;;;;;;;6.57;2.70;;;;;;;21.05;83.89;102062.97;7382772;19;20329;-80
2022/07/30 07:25:50;;;;;;;6.47;2.80;;;;;;;20.72;84.23;102066.00;7380080;19;20006;-79
2022/07/30 07:28:20;;;;;;;5.38;2.65;;;;;;;21.13;85.29;102069.09;7381860;19;20010;-78
2022/07/30 07:31:03;;;;;;;6.07;2.92;;;;;;;20.98;82.85;102076.38;7379024;19;20518;-78
2022/07/30 07:33:33;;;;;;;5.40;2.42;;;;;;;21.36;81.91;102074.22;7380058;19;20022;-79
2022/07/30 07:36:06;;;;;;;6.70;2.60;;;;;;;21.37;80.39;102072.44;7381898;19;20023;-80
2022/07/30 07:38:37;;;;;;;5.40;2.42;;;;;;;21.33;79.26;102081.38;7378440;19;20578;-76
2022/07/30 07:41:07;;;;;;;5.75;2.50;;;;;;;21.69;81.05;102072.91;7377225;19;20010;-77
2022/07/30 07:43:37;;;;;;;10.82;2.88;;;;;;;22.03;80.57;102075.13;7374943;19;20062;-76
2022/07/30 07:46:07;;;;;;;8.10;2.90;;;;;;;22.36;76.32;102074.59;7378280;19;20526;-76
2022/07/30 07:48:38;;;;;;;7.15;2.55;;;;;;;22.64;76.78;102076.81;7377727;19;20037;-76
2022/07/30 07:51:10;;;;;;;7.13;2.80;;;;;;;23.09;76.16;102080.47;7380784;19;20021;-76
2022/07/30 07:53:40;;;;;;;5.63;2.72;;;;;;;23.63;71.69;102070.47;7372150;19;20018;-76
2022/07/30 07:56:11;;;;;;;5.10;2.67;;;;;;;23.75;71.59;102075.56;7377614;19;20002;-78
2022/07/30 07:58:42;;;;;;;5.40;2.50;;;;;;;23.62;69.06;102070.50;7380699;19;20011;-77
2022/07/30 08:01:15;;;;;;;5.95;2.72;;;;;;;23.63;68.62;102070.47;7378850;19;20015;-77
2022/07/30 08:03:45;;;;;;;4.65;2.25;;;;;;;23.51;64.99;102067.13;7377969;19;20011;-76
2022/07/30 08:06:22;;;;;;;7.35;2.97;;;;;;;23.63;64.90;102067.78;7376212;19;20033;-77
2022/07/30 08:08:52;;;;;;;5.93;2.50;;;;;;;23.45;63.58;102063.69;7377563;19;20723;-75
2022/07/30 08:11:24;;;;;;;5.53;2.17;;;;;;;23.06;64.25;102073.38;7375693;19;20124;-77
2022/07/30 08:13:54;;;;;;;5.30;2.50;;;;;;;23.38;64.50;102071.88;7378442;19;20079;-77
2022/07/30 08:16:24;;;;;;;6.20;2.70;;;;;;;23.48;66.13;102054.69;7378845;19;20890;-76
2022/07/30 08:18:54;;;;;;;6.25;2.42;;;;;;;23.74;64.12;102062.22;7376148;19;20269;-77
2022/07/30 08:21:27;;;;;;;6.00;2.70;;;;;;;24.31;62.45;102057.31;7376706;19;20488;-77
2022/07/30 08:23:59;;;;;;;4.60;2.53;;;;;;;24.55;60.45;102054.94;7378383;19;20035;-78
2022/07/30 08:26:29;;;;;;;5.47;2.17;;;;;;;24.99;58.04;102046.59;7386336;19;20027;-77
2022/07/30 08:29:00;;;;;;;5.32;2.55;;;;;;;25.37;57.84;102047.31;7384175;19;20813;-77
2022/07/30 08:31:30;;;;;;;3.42;2.22;;;;;;;25.05;53.66;102049.09;7386553;19;20026;-78
2022/07/30 08:34:03;;;;;;;9.20;2.60;;;;;;;23.58;58.14;102058.97;7386818;19;20015;-79
2022/07/30 08:36:35;;;;;;;4.25;1.98;;;;;;;24.81;56.82;102047.09;7386397;19;20018;-77
2022/07/30 08:39:06;;;;;;;4.53;2.40;;;;;;;25.35;55.77;102049.16;7384342;19;20007;-77
2022/07/30 08:41:37;;;;;;;5.78;2.20;;;;;;;25.48;53.75;102049.69;7383266;19;20026;-79
2022/07/30 08:44:12;;;;;;;5.60;2.92;;;;;;;24.73;55.92;102054.44;7389237;19;20006;-79
2022/07/30 08:46:45;;;;;;;4.57;2.50;;;;;;;25.22;55.56;102070.09;7390547;19;20032;-79
2022/07/30 08:49:18;;;;;;;4.72;2.50;;;;;;;24.88;55.35;102069.25;7392362;19;20007;-80
2022/07/30 08:51:55;;;;;;;4.55;2.53;;;;;;;24.45;54.79;102063.19;7388063;19;20011;-81
2022/07/30 08:54:25;;;;;;;6.30;2.90;;;;;;;24.60;53.25;102058.38;7382138;19;20014;-80
2022/07/30 08:56:58;;;;;;;6.85;2.45;;;;;;;24.18;54.89;102065.63;7388521;19;20011;-81
2022/07/30 08:59:36;;;;;;;6.38;2.60;;;;;;;24.91;54.31;102072.75;7385261;19;20042;-81
2022/07/30 09:02:26;;;;;;;7.22;2.67;;;;;;;24.41;54.29;102068.69;7386971;19;20014;-80
2022/07/30 09:04:59;;;;;;;6.10;2.65;;;;;;;24.97;53.88;102069.91;7386455;19;20019;-81
2022/07/30 09:07:34;;;;;;;4.97;2.45;;;;;;;24.93;51.71;102070.91;7391215;19;20019;-79
2022/07/30 09:10:05;;;;;;;5.10;2.25;;;;;;;25.79;51.45;102065.78;7386004;19;20578;-80
2022/07/30 09:12:41;;;;;;;5.55;2.58;;;;;;;25.65;50.94;102066.22;7389940;19;20405;-80
2022/07/30 09:15:15;;;;;;;5.18;2.40;;;;;;;25.63;51.71;102081.47;7386475;19;20011;-80
2022/07/30 09:17:57;;;;;;;5.88;2.50;;;;;;;25.12;52.17;102092.75;7386412;19;20121;-79
2022/07/30 09:20:33;;;;;;;5.18;2.47;;;;;;;26.05;51.71;102087.34;7390032;19;20337;-79
2022/07/30 09:23:08;;;;;;;5.85;2.50;;;;;;;26.52;49.91;102079.56;7388321;19;20376;-80
2022/07/30 09:25:42;;;;;;;5.90;2.35;;;;;;;26.54;49.50;102081.28;7388993;19;20010;-81
2022/07/30 09:28:13;;;;;;;6.53;2.60;;;;;;;26.75;50.69;102071.59;7389025;19;20100;-78
2022/07/30 09:30:46;;;;;;;;;;;;;;;26.38;50.93;102067.47;7389793;19;20459;-80
2022/07/30 09:33:32;;;;;;;4.72;2.40;;;;;;;27.09;48.80;102062.31;7387510;19;19932;-80
2022/07/30 09:36:02;;;;;;;5.43;2.67;;;;;;;27.04;48.94;102060.69;7386864;19;20018;-81
2022/07/30 09:38:44;;;;;;;6.60;2.70;;;;;;;25.88;51.22;102066.38;7392580;19;20015;-81
2022/07/30 09:41:18;;;;;;;5.43;2.42;;;;;;;25.39;51.01;102062.44;7392653;19;20018;-79
2022/07/30 09:44:08;;;;;;;6.47;2.80;;;;;;;25.47;52.18;102064.91;7390396;19;20058;-79
2022/07/30 09:46:46;;;;;;;6.75;2.75;;;;;;;26.20;53.07;102059.97;7393206;19;20010;-80
2022/07/30 09:49:18;;;;;;;7.40;2.75;;;;;;;26.39;50.62;102058.47;7394884;19;20014;-79
2022/07/30 09:51:48;;;;;;;8.65;2.80;;;;;;;26.61;51.34;102063.13;7391312;19;20036;-81
2022/07/30 09:54:48;;;;;;;5.60;2.20;;;;;;;27.26;48.46;102054.50;7388122;19;20010;-81
2022/07/30 09:57:23;;;;;;;6.55;2.78;;;;;;;26.53;48.28;102062.50;7396412;19;20385;-81
2022/07/30 10:00:17;;;;;;;8.77;2.67;;;;;;;26.79;49.63;102050.84;7390221;19;20023;-81
2022/07/30 10:02:49;;;;;;;5.68;3.15;;;;;;;26.79;50.10;102054.41;7383132;19;20021;-79
2022/07/30 10:05:21;;;;;;;8.27;3.05;;;;;;;26.67;50.28;102058.41;7383438;19;20010;-81
2022/07/30 10:07:53;;;;;;;;;;;;;;;26.54;49.75;102061.56;7380160;19;20014;-81
2022/07/30 10:10:27;;;;;;;6.60;2.92;;;;;;;26.73;47.99;102056.44;7381076;19;19918;-80
2022/07/30 10:13:02;;;;;;;6.13;2.75;;;;;;;26.21;49.40;102059.03;7383231;19;20342;-79
2022/07/30 10:15:35;;;;;;;6.93;2.70;;;;;;;27.08;50.36;102074.91;7384187;19;20029;-80
2022/07/30 10:18:06;;;;;;;7.87;2.70;;;;;;;27.30;48.61;102064.22;7380428;19;20487;-79
2022/07/30 10:20:38;;;;;;;6.82;2.85;;;;;;;26.70;47.45;102066.38;7380700;19;20078;-79
2022/07/30 10:23:12;;;;;;;5.78;2.58;;;;;;;26.32;48.19;102067.66;7382923;19;20007;-79
2022/07/30 10:25:47;;;;;;;5.88;2.65;;;;;;;26.14;48.28;102070.91;7381962;19;20464;-80
2022/07/30 10:28:25;;;;;;;6.60;2.72;;;;;;;26.07;49.96;102078.28;7383785;19;20495;-80
2022/07/30 10:30:58;;;;;;;4.97;2.70;;;;;;;26.63;49.56;102074.72;7381507;19;20017;-80
2022/07/30 10:33:31;;;;;;;7.22;2.80;;;;;;;27.23;48.83;102066.28;7384338;19;20438;-79
2022/07/30 10:36:06;;;;;;;5.50;2.60;;;;;;;27.25;46.70;102064.41;7381297;19;20056;-79
2022/07/30 10:38:42;;;;;;;5.18;2.75;;;;;;;26.87;47.70;102064.91;7381739;19;20421;-80
2022/07/30 10:41:33;;;;;;;5.35;2.33;;;;;;;27.21;47.98;102064.56;7387149;19;20904;-79
2022/07/30 10:44:31;;;;;;;;;;;;;;;26.63;48.19;102062.13;7382840;19;20017;-80
2022/07/30 10:47:17;;;;;;;7.05;2.60;;;;;;;26.99;48.15;102064.50;7378976;19;19910;-80
2022/07/30 10:50:25;;;;;;;5.82;2.28;;;;;;;26.90;48.17;102057.59;7388406;19;20019;-81
2022/07/30 10:53:04;;;;;;;5.25;2.63;;;;;;;27.36;47.31;102056.81;7383729;19;20053;-80
2022/07/30 10:55:45;;;;;;;5.40;2.60;;;;;;;27.11;46.39;102052.38;7387531;19;20007;-81
2022/07/30 10:58:23;;;;;;;7.88;2.70;;;;;;;27.12;45.90;102046.06;7385386;19;20006;-80
2022/07/30 11:01:04;;;;;;;4.70;2.42;;;;;;;27.61;46.15;102054.09;7388669;19;20081;-79
2022/07/30 11:04:29;;;;;;;8.90;4.10;;;;;;;27.33;47.38;102058.72;7386970;19;20183;-80
2022/07/30 11:07:46;;;;;;;;;;;;;;;;;;;;;
2022/07/30 11:10:39;;;;;;;5.72;2.67;;;;;;;26.95;45.56;102054.75;7386319;19;20056;-80
2022/07/30 11:13:46;;;;;;;6.40;2.70;;;;;;;26.36;46.36;102063.06;7383532;19;20002;-79
2022/07/30 11:16:22;;;;;;;3.60;2.20;;;;;;;25.82;48.02;102055.81;7380789;19;20045;-77
2022/07/30 11:19:23;;;;;;;5.07;2.60;;;;;;;26.22;47.48;102060.78;7382442;19;20018;-78
2022/07/30 11:22:37;;;;;;;7.57;3.05;;;;;;;26.08;49.05;102071.09;7382988;19;20519;-81
2022/07/30 11:25:11;;;;;;;6.50;2.53;;;;;;;26.62;49.85;102062.19;7384026;19;20011;-80
2022/07/30 11:27:47;;;;;;;6.07;2.80;;;;;;;26.65;49.22;102064.78;7380814;19;20014;-80
2022/07/30 11:30:37;;;;;;;6.93;3.00;;;;;;;25.99;49.84;102068.75;7382765;19;20017;-79
2022/07/30 11:33:30;;;;;;;6.10;2.92;;;;;;;25.95;49.92;102069.75;7382853;19;20012;-79
2022/07/30 11:36:14;;;;;;;7.72;2.97;;;;;;;26.13;50.31;102055.72;7385038;19;20010;-80
2022/07/30 11:39:02;;;;;;;5.28;2.70;;;;;;;25.31;52.26;102061.78;7385090;19;20039;-80
2022/07/30 11:41:37;;;;;;;5.22;2.72;;;;;;;26.21;51.44;102058.16;7388111;19;20013;-80
2022/07/30 11:44:37;;;;;;;8.63;3.47;;;;;;;26.60;51.87;102055.97;7383456;19;20014;-79
2022/07/30 11:47:15;;;;;;;8.75;3.92;;;;;;;26.51;51.52;102061.66;7387838;19;20128;-82
2022/07/30 11:49:48;;;;;;;5.97;2.97;;;;;;;26.53;51.67;102059.81;7384760;19;20017;-79
2022/07/30 11:52:25;;;;;;;8.27;3.47;;;;;;;26.37;51.43;102056.75;7384110;19;20022;-81
2022/07/30 11:55:00;;;;;;;10.35;3.42;;;;;;;26.40;53.36;102067.41;7386401;19;20022;-79
2022/07/30 11:57:42;;;;;;;7.82;3.03;;;;;;;26.22;52.87;102058.09;7386828;19;20495;-79